createdAt,value
2022-12-01T05:27:35.313Z,93.00
2022-12-01T05:30:01.876Z,93.10
2022-12-01T05:32:28.120Z,93.10
2022-12-01T05:34:54.735Z,97.00
2022-12-01T05:37:20.850Z,93.10
2022-12-01T05:39:47.546Z,93.10
2022-12-01T05:42:14.194Z,93.00
2022-12-01T05:44:40.348Z,93.10
2022-12-01T05:47:06.784Z,92.70
2022-12-01T05:49:33.221Z,92.80
2022-12-01T05:51:59.371Z,92.60
2022-12-01T05:54:25.684Z,92.60
2022-12-01T05:56:52.194Z,92.50
2022-12-01T05:59:18.537Z,92.50
2022-12-01T06:01:45.302Z,92.60
2022-12-01T06:04:11.913Z,92.60
2022-12-01T06:06:38.097Z,92.50
2022-12-01T06:09:04.577Z,92.70
2022-12-01T06:11:30.712Z,92.60
2022-12-01T06:13:57.875Z,92.70
2022-12-01T06:16:24.060Z,92.80
2022-12-01T06:18:50.605Z,93.00
2022-12-01T06:21:16.751Z,92.70
2022-12-01T06:23:43.160Z,92.90
2022-12-01T06:26:09.990Z,92.60
2022-12-01T06:28:37.336Z,93.30
2022-12-01T06:31:04.013Z,93.00
2022-12-01T06:33:31.097Z,92.90
2022-12-01T06:36:01.867Z,92.90
2022-12-01T06:38:34.617Z,92.90
2022-12-01T06:41:00.993Z,92.80
2022-12-01T06:43:27.527Z,92.80
2022-12-01T06:45:59.422Z,92.90
2022-12-01T06:48:28.173Z,92.90
2022-12-01T06:50:57.567Z,92.90
2022-12-01T06:53:24.570Z,92.80
2022-12-01T06:55:51.383Z,92.90
2022-12-01T06:58:18.071Z,92.90
2022-12-01T07:00:48.972Z,92.80
2022-12-01T07:03:19.031Z,92.90
2022-12-01T07:05:54.568Z,92.80
2022-12-01T07:08:20.826Z,92.70
2022-12-01T07:11:06.822Z,92.70
2022-12-01T07:13:34.202Z,92.60
2022-12-01T07:16:04.410Z,92.60
2022-12-01T07:18:31.336Z,92.70
2022-12-01T07:21:02.179Z,92.60
2022-12-01T07:23:28.706Z,92.50
2022-12-01T07:26:05.157Z,92.50
2022-12-01T07:28:32.007Z,92.60
2022-12-01T07:31:58.613Z,92.60
2022-12-01T07:34:25.195Z,92.40
2022-12-01T07:36:52.378Z,92.10
2022-12-01T07:39:18.617Z,92.00
2022-12-01T07:41:44.920Z,92.00
2022-12-01T07:44:11.211Z,92.10
2022-12-01T07:46:37.664Z,92.00
2022-12-01T07:49:07.168Z,91.90
2022-12-01T07:51:33.568Z,92.00
2022-12-01T07:54:04.124Z,91.80
2022-12-01T07:56:31.208Z,91.60
2022-12-01T07:58:57.447Z,91.40
2022-12-01T08:01:26.944Z,91.40
2022-12-01T08:03:55.278Z,91.40
2022-12-01T08:06:22.335Z,91.20
2022-12-01T08:08:48.761Z,91.10
2022-12-01T08:11:22.665Z,90.80
2022-12-01T08:13:49.632Z,90.80
2022-12-01T08:16:19.476Z,90.80
2022-12-01T08:18:46.379Z,90.90
2022-12-01T08:21:15.285Z,90.60
2022-12-01T08:23:41.907Z,90.80
2022-12-01T08:26:14.796Z,90.70
2022-12-01T08:28:41.044Z,91.00
2022-12-01T08:31:09.673Z,90.60
2022-12-01T08:33:36.061Z,90.80
2022-12-01T08:36:03.756Z,90.40
2022-12-01T08:38:30.314Z,90.80
2022-12-01T08:41:05.679Z,90.40
2022-12-01T08:43:56.663Z,90.50
2022-12-01T08:46:26.131Z,90.40
2022-12-01T08:48:55.477Z,90.60
2022-12-01T08:51:23.238Z,90.70
2022-12-01T08:53:49.566Z,90.70
2022-12-01T08:56:28.186Z,90.50
2022-12-01T08:58:54.845Z,90.70
2022-12-01T09:01:21.641Z,90.60
2022-12-01T09:03:48.513Z,90.50
2022-12-01T09:06:16.755Z,90.70
2022-12-01T09:08:43.713Z,90.80
2022-12-01T09:11:13.728Z,90.80
2022-12-01T09:13:40.696Z,90.90
2022-12-01T09:16:09.866Z,91.10
2022-12-01T09:18:36.148Z,90.90
2022-12-01T09:21:26.297Z,90.80
2022-12-01T09:23:53.755Z,90.90
2022-12-01T09:26:20.267Z,90.80
2022-12-01T09:28:47.231Z,90.80
2022-12-01T09:31:15.055Z,90.90
2022-12-01T09:33:42.737Z,91.20
2022-12-01T09:36:09.293Z,90.60
2022-12-01T09:38:36.824Z,90.70
2022-12-01T09:41:15.444Z,90.80
2022-12-01T09:43:45.587Z,90.80
2022-12-01T09:46:16.297Z,90.70
2022-12-01T09:48:44.819Z,90.70
2022-12-01T09:51:23.529Z,90.70
2022-12-01T09:53:51.688Z,90.30
2022-12-01T09:56:23.636Z,90.20
2022-12-01T09:58:57.569Z,90.40
2022-12-01T10:01:36.459Z,90.40
2022-12-01T10:04:25.116Z,90.40
2022-12-01T10:07:01.711Z,90.40
2022-12-01T10:09:56.873Z,90.40
2022-12-01T10:12:27.010Z,90.40
2022-12-01T10:16:15.974Z,90.50
2022-12-01T10:19:09.592Z,90.20
2022-12-01T10:26:16.791Z,90.50
2022-12-01T10:30:39.302Z,90.40
2022-12-01T10:33:33.658Z,90.60
2022-12-01T10:36:00.201Z,90.20
2022-12-01T10:38:31.904Z,90.40
2022-12-01T10:41:01.282Z,90.60
2022-12-01T10:43:45.106Z,90.40
2022-12-01T10:46:37.182Z,90.60
2022-12-01T10:49:11.627Z,89.80
2022-12-01T10:51:58.206Z,89.80
2022-12-01T10:54:35.499Z,90.00
2022-12-01T10:57:02.831Z,90.00
2022-12-01T11:00:50.822Z,90.40
2022-12-01T11:03:28.434Z,90.50
2022-12-01T11:05:58.507Z,90.20
2022-12-01T11:08:43.806Z,90.50
2022-12-01T11:11:36.647Z,90.40
2022-12-01T11:14:17.308Z,90.60
2022-12-01T11:16:45.187Z,90.20
2022-12-01T11:19:34.634Z,90.50
2022-12-01T11:22:02.593Z,90.50
2022-12-01T11:24:43.566Z,90.30
2022-12-01T11:27:25.321Z,90.30
2022-12-01T11:29:54.211Z,90.20
2022-12-01T11:32:37.490Z,90.50
2022-12-01T11:35:17.915Z,90.80
2022-12-01T11:38:13.142Z,90.30
2022-12-01T11:40:55.176Z,90.70
2022-12-01T11:43:35.194Z,90.60
2022-12-01T11:46:07.823Z,90.40
2022-12-01T11:48:36.177Z,90.60
2022-12-01T11:51:07.822Z,90.40
2022-12-01T11:53:39.125Z,90.50
2022-12-01T11:56:29.431Z,90.60
2022-12-01T11:59:04.171Z,91.10
2022-12-01T12:03:07.313Z,90.90
2022-12-01T12:06:31.859Z,90.60
2022-12-01T12:09:28.130Z,90.70
2022-12-01T12:15:18.956Z,90.10
2022-12-01T12:23:54.631Z,90.60
2022-12-01T12:26:36.013Z,89.60
2022-12-01T12:29:58.242Z,90.20
2022-12-01T12:34:02.763Z,90.10
2022-12-01T12:37:05.786Z,88.70
2022-12-01T12:43:10.807Z,87.40
2022-12-01T12:46:17.091Z,87.40
2022-12-01T12:49:19.592Z,87.40
2022-12-01T12:52:09.185Z,87.50
2022-12-01T12:54:48.552Z,88.20
2022-12-01T12:57:40.503Z,88.70
2022-12-01T13:00:42.241Z,88.80
2022-12-01T13:04:26.718Z,88.90
2022-12-01T13:07:07.095Z,89.60
2022-12-01T13:09:41.182Z,89.40
2022-12-01T13:12:09.561Z,88.70
2022-12-01T13:14:41.931Z,87.20
2022-12-01T13:17:25.413Z,87.50
2022-12-01T13:19:51.870Z,87.60
2022-12-01T13:22:30.932Z,87.90
2022-12-01T13:24:57.221Z,88.20
2022-12-01T13:27:25.723Z,88.60
2022-12-01T13:29:53.623Z,88.60
2022-12-01T13:32:40.151Z,89.20
2022-12-01T13:35:20.775Z,88.30
2022-12-01T13:37:47.081Z,89.30
2022-12-01T13:40:25.724Z,89.20
2022-12-01T13:42:59.690Z,89.70
2022-12-01T13:45:29.127Z,90.00
2022-12-01T13:47:56.695Z,90.20
2022-12-01T13:54:06.566Z,89.50
2022-12-01T13:56:46.104Z,87.80
2022-12-01T14:00:34.096Z,87.70
2022-12-01T14:04:52.784Z,87.60
2022-12-01T14:07:27.332Z,87.60
2022-12-01T14:09:58.297Z,87.30
2022-12-01T14:12:31.920Z,87.40
2022-12-01T14:15:02.282Z,87.50
2022-12-01T14:17:33.564Z,88.00
2022-12-01T14:20:41.010Z,88.00
2022-12-01T14:23:35.488Z,88.20
2022-12-01T14:26:19.258Z,88.50
2022-12-01T14:32:22.031Z,88.60
2022-12-01T14:34:52.245Z,89.10
2022-12-01T14:37:22.106Z,89.30
2022-12-01T14:40:49.023Z,89.30
2022-12-01T14:43:34.133Z,89.60
2022-12-01T14:46:09.876Z,89.50
2022-12-01T14:48:41.853Z,89.90
2022-12-01T14:51:56.304Z,89.30
2022-12-01T14:54:32.279Z,89.80
2022-12-01T14:57:06.634Z,89.80
2022-12-01T14:59:34.500Z,89.70
2022-12-01T15:02:12.448Z,89.90
2022-12-01T15:05:14.428Z,89.90
2022-12-01T15:07:54.281Z,89.80
2022-12-01T15:10:34.356Z,89.80
2022-12-01T15:13:56.772Z,89.70
2022-12-01T15:16:30.420Z,89.90
2022-12-01T15:18:56.700Z,89.90
2022-12-01T15:21:28.813Z,89.80
2022-12-01T15:24:23.041Z,89.60
2022-12-01T15:26:56.793Z,89.80
2022-12-01T15:29:45.226Z,90.50
2022-12-01T15:32:15.025Z,89.90
2022-12-01T15:34:43.478Z,89.90
2022-12-01T15:37:15.113Z,89.80
2022-12-01T15:40:43.499Z,89.70
2022-12-01T15:43:40.893Z,90.10
2022-12-01T15:46:17.387Z,90.30
2022-12-01T15:48:45.318Z,90.20
2022-12-01T15:51:27.932Z,90.10
2022-12-01T15:54:00.700Z,90.00
2022-12-01T15:56:37.864Z,90.10
2022-12-01T16:00:00.439Z,90.00
2022-12-01T16:02:31.532Z,90.10
2022-12-01T16:05:47.617Z,90.20
2022-12-01T16:08:19.139Z,90.30
2022-12-01T16:10:47.621Z,90.50
2022-12-01T16:13:49.679Z,91.00
2022-12-01T16:16:42.679Z,90.50
2022-12-01T16:19:40.101Z,90.50
2022-12-01T16:22:26.926Z,90.60
2022-12-01T16:24:54.934Z,90.40
2022-12-01T16:27:39.328Z,90.60
2022-12-01T16:30:19.029Z,90.50
2022-12-01T16:32:48.678Z,90.60
2022-12-01T16:35:27.675Z,90.70
2022-12-01T16:37:56.393Z,90.50
2022-12-01T16:40:23.436Z,90.10
2022-12-01T16:42:50.450Z,89.90
2022-12-01T16:45:17.612Z,90.00
2022-12-01T16:47:45.150Z,89.90
2022-12-01T16:50:18.295Z,89.90
2022-12-01T16:52:45.889Z,89.30
2022-12-01T16:55:42.530Z,89.90
2022-12-01T16:58:08.713Z,89.60
2022-12-01T17:00:35.920Z,89.10
2022-12-01T17:03:02.473Z,87.10
2022-12-01T17:05:29.386Z,85.90
2022-12-01T17:07:57.501Z,85.80
2022-12-01T17:10:23.739Z,86.10
2022-12-01T17:12:50.021Z,86.60
2022-12-01T17:15:16.212Z,86.50
2022-12-01T17:17:43.606Z,86.70
2022-12-01T17:20:10.292Z,87.60
2022-12-01T17:22:36.593Z,88.00
2022-12-01T17:25:03.950Z,88.50
2022-12-01T17:27:32.267Z,88.60
2022-12-01T17:29:59.777Z,89.20
2022-12-01T17:32:28.136Z,89.20
2022-12-01T17:34:54.276Z,89.30
2022-12-01T17:37:23.120Z,90.00
2022-12-01T17:39:49.664Z,89.50
2022-12-01T17:42:16.642Z,89.30
2022-12-01T17:44:43.324Z,88.90
2022-12-01T17:47:09.718Z,88.90
2022-12-01T17:49:37.051Z,89.10
2022-12-01T17:52:04.318Z,89.30
2022-12-01T17:54:30.622Z,89.60
2022-12-01T17:56:57.603Z,88.80
2022-12-01T17:59:24.119Z,86.60
2022-12-01T18:01:51.024Z,87.30
2022-12-01T18:04:17.708Z,88.00
2022-12-01T18:06:45.337Z,88.90
2022-12-01T18:09:15.927Z,88.70
2022-12-01T18:11:42.967Z,89.30
2022-12-01T18:14:10.000Z,89.10
2022-12-01T18:16:38.419Z,89.20
2022-12-01T18:19:05.406Z,89.50
2022-12-01T18:21:34.099Z,89.20
2022-12-01T18:24:02.502Z,88.30
2022-12-01T18:26:30.433Z,88.40
2022-12-01T18:29:03.118Z,88.90
2022-12-01T18:31:30.875Z,88.50
2022-12-01T18:34:01.965Z,86.00
2022-12-01T18:36:28.861Z,86.00
2022-12-01T18:38:58.737Z,84.90
2022-12-01T18:41:25.677Z,85.10
2022-12-01T18:43:51.946Z,85.60
2022-12-01T18:46:19.828Z,84.40
2022-12-01T18:48:52.529Z,84.00
2022-12-01T18:51:18.900Z,84.40
2022-12-01T18:53:49.859Z,84.40
2022-12-01T18:56:19.791Z,84.00
2022-12-01T18:58:54.342Z,84.70
2022-12-01T19:01:25.271Z,84.80
2022-12-01T19:03:54.531Z,85.10
2022-12-01T19:06:23.021Z,86.10
2022-12-01T19:08:52.522Z,86.90
2022-12-01T19:11:20.999Z,87.30
2022-12-01T19:13:48.950Z,87.50
2022-12-01T19:16:19.174Z,87.30
2022-12-01T19:18:48.142Z,87.70
2022-12-01T19:21:16.746Z,87.90
2022-12-01T19:23:46.499Z,87.60
2022-12-01T19:26:15.036Z,87.50
2022-12-01T19:28:42.314Z,87.90
2022-12-01T19:31:10.625Z,87.80
2022-12-01T19:33:37.214Z,87.70
2022-12-01T19:36:12.100Z,86.90
2022-12-01T19:38:39.498Z,86.30
2022-12-01T19:41:33.722Z,85.50
2022-12-01T19:44:03.929Z,85.30
2022-12-01T19:46:30.275Z,85.00
2022-12-01T19:49:00.266Z,85.00
2022-12-01T19:51:29.289Z,85.60
2022-12-01T19:53:57.612Z,87.00
2022-12-01T19:56:25.945Z,85.70
2022-12-01T19:58:54.384Z,85.70
2022-12-01T20:01:23.804Z,86.10
2022-12-01T20:03:53.749Z,86.60
2022-12-01T20:06:28.340Z,86.20
2022-12-01T20:09:06.081Z,87.10
2022-12-01T20:11:35.275Z,87.60
2022-12-01T20:14:06.014Z,87.30
2022-12-01T20:16:43.521Z,87.70
2022-12-01T20:19:13.275Z,87.10
2022-12-01T20:21:42.768Z,86.40
2022-12-01T20:24:16.700Z,86.50
2022-12-01T20:26:48.468Z,86.40
2022-12-01T20:29:21.879Z,86.70
2022-12-01T20:31:50.406Z,87.10
2022-12-01T20:34:24.358Z,87.00
2022-12-01T20:36:58.682Z,87.40
2022-12-01T20:39:28.874Z,87.50
2022-12-01T20:41:56.363Z,87.80
2022-12-01T20:44:25.394Z,88.00
2022-12-01T20:46:52.758Z,88.30
2022-12-01T20:49:19.830Z,88.20
2022-12-01T20:51:49.796Z,87.90
2022-12-01T20:54:32.969Z,87.60
2022-12-01T20:56:59.720Z,87.80
2022-12-01T20:59:28.541Z,87.60
2022-12-01T21:01:56.421Z,87.60
2022-12-01T21:04:23.612Z,87.80
2022-12-01T21:06:50.486Z,88.20
2022-12-01T21:09:20.399Z,88.30
2022-12-01T21:12:13.299Z,88.50
2022-12-01T21:14:50.257Z,88.00
2022-12-01T21:18:03.521Z,88.20
2022-12-01T21:20:32.408Z,88.10
2022-12-01T21:23:11.039Z,88.30
2022-12-01T21:25:38.746Z,88.00
2022-12-01T21:28:27.515Z,90.00
2022-12-01T21:31:22.108Z,88.40
2022-12-01T21:33:49.380Z,88.50
2022-12-01T21:36:18.080Z,88.70
2022-12-01T21:38:46.536Z,88.60
2022-12-01T21:41:29.244Z,89.00
2022-12-01T21:44:00.794Z,89.10
2022-12-01T21:46:39.479Z,88.10
2022-12-01T21:49:15.700Z,87.70
2022-12-01T21:51:47.588Z,87.00
2022-12-01T21:54:22.325Z,87.10
2022-12-01T21:56:48.764Z,87.00
2022-12-01T21:59:25.226Z,87.00
2022-12-01T22:01:56.082Z,87.10
2022-12-01T22:04:33.134Z,87.90
2022-12-01T22:07:01.178Z,88.10
2022-12-01T22:09:35.021Z,88.60
2022-12-01T22:12:26.983Z,88.30
2022-12-01T22:14:57.883Z,88.60
2022-12-01T22:17:24.416Z,88.50
2022-12-01T22:20:04.447Z,89.00
2022-12-01T22:22:32.438Z,90.00
2022-12-01T22:25:01.674Z,89.20
2022-12-01T22:27:40.089Z,88.20
2022-12-01T22:30:28.457Z,88.60
2022-12-01T22:33:00.588Z,88.30
2022-12-01T22:35:30.660Z,88.40
2022-12-01T22:38:57.892Z,88.30
2022-12-01T22:41:26.675Z,89.00
2022-12-01T22:44:00.639Z,89.70
2022-12-01T22:46:35.227Z,89.60
2022-12-01T22:49:35.469Z,90.00
2022-12-01T22:52:27.617Z,90.00
2022-12-01T22:54:54.123Z,90.10
2022-12-01T22:57:36.935Z,90.10
2022-12-01T23:00:18.167Z,90.40
2022-12-01T23:02:46.314Z,90.10
2022-12-01T23:05:24.663Z,90.00
2022-12-01T23:07:52.459Z,90.00
2022-12-01T23:10:22.356Z,89.30
2022-12-01T23:12:50.223Z,89.30
2022-12-01T23:15:31.628Z,89.10
2022-12-01T23:18:27.018Z,89.10
2022-12-01T23:20:56.282Z,88.90
2022-12-01T23:23:27.296Z,89.20
2022-12-01T23:25:54.545Z,89.70
2022-12-01T23:28:21.496Z,89.40
2022-12-01T23:30:51.947Z,89.50
2022-12-01T23:33:21.500Z,89.70
2022-12-01T23:36:17.377Z,88.90
2022-12-01T23:38:46.843Z,90.20
2022-12-01T23:41:33.695Z,90.00
2022-12-01T23:44:18.625Z,89.70
2022-12-01T23:46:46.208Z,88.40
2022-12-01T23:49:28.327Z,88.40
2022-12-01T23:51:56.712Z,88.30
2022-12-01T23:54:34.074Z,88.20
2022-12-01T23:57:43.655Z,87.60
